Time;durP1;ratioP1;P1;durP2;ratioP2;P2;SDS_P1;SDS_P2;PMS_P1;PMS_P2;Temp;Humidity;BMP_temperature;BMP_pressure;BME280_temperature;BME280_humidity;BME280_pressure;Samples;Min_cycle;Max_cycle;Signal;HPM_P1;HPM_P2
2021/05/21 00:00:52;;;;;;;10.98;6.28;;;;;;;8.55;100.00;99995.00;5094837;28;20468;-79
2021/05/21 00:03:17;;;;;;;11.98;6.88;;;;;;;8.58;100.00;99984.59;5096213;28;20024;-80
2021/05/21 00:05:43;;;;;;;11.15;6.63;;;;;;;8.48;100.00;99986.50;5097341;28;20028;-79
2021/05/21 00:08:11;;;;;;;9.90;6.05;;;;;;;8.45;100.00;99986.56;5095422;28;20120;-79
2021/05/21 00:10:37;;;;;;;10.57;6.15;;;;;;;8.37;100.00;99974.63;5095020;28;20514;-79
2021/05/21 00:13:03;;;;;;;11.75;6.47;;;;;;;8.28;100.00;99970.47;5094855;28;20032;-80
2021/05/21 00:15:28;;;;;;;12.07;6.18;;;;;;;8.21;100.00;99969.75;5094859;28;20016;-80
2021/05/21 00:17:53;;;;;;;13.02;6.35;;;;;;;8.13;100.00;99957.84;5095051;28;20020;-79
2021/05/21 00:20:19;;;;;;;10.02;5.85;;;;;;;8.10;100.00;99961.34;5094774;28;20016;-80
2021/05/21 00:22:44;;;;;;;9.90;5.78;;;;;;;8.01;100.00;99949.47;5095142;28;20027;-79
2021/05/21 00:25:10;;;;;;;9.63;5.50;;;;;;;7.99;100.00;99946.03;5094849;28;20023;-80
2021/05/21 00:27:35;;;;;;;9.75;5.80;;;;;;;7.91;100.00;99942.72;5095115;28;20024;-79
2021/05/21 00:30:01;;;;;;;12.45;5.68;;;;;;;7.89;100.00;99936.75;5094659;28;20020;-80
2021/05/21 00:32:26;;;;;;;10.35;5.72;;;;;;;7.80;100.00;99937.75;5094511;28;20384;-79
2021/05/21 00:34:51;;;;;;;11.77;6.38;;;;;;;7.74;100.00;99924.97;5094487;28;20027;-79
2021/05/21 00:37:16;;;;;;;11.95;6.57;;;;;;;7.76;100.00;99928.38;5094360;28;20031;-80
2021/05/21 00:39:42;;;;;;;12.43;6.45;;;;;;;7.74;100.00;99913.78;5094515;28;20027;-79
2021/05/21 00:42:08;;;;;;;13.32;7.18;;;;;;;7.83;100.00;99916.22;5095701;28;20110;-79
2021/05/21 00:44:34;;;;;;;10.27;6.40;;;;;;;7.92;100.00;99913.47;5094422;28;20043;-80
2021/05/21 00:46:59;;;;;;;11.90;6.63;;;;;;;7.95;100.00;99910.84;5095617;28;20111;-79
2021/05/21 00:49:24;;;;;;;9.60;6.00;;;;;;;7.96;100.00;99904.78;5095427;28;20076;-79
2021/05/21 00:51:49;;;;;;;13.57;7.03;;;;;;;7.96;100.00;99897.03;5094510;28;20019;-79
2021/05/21 00:54:19;;;;;;;11.27;6.80;;;;;;;7.94;100.00;99885.88;5095626;28;20027;-79
2021/05/21 00:56:45;;;;;;;11.00;6.63;;;;;;;7.90;100.00;99885.97;5094238;28;20047;-79
2021/05/21 00:59:10;;;;;;;11.93;7.28;;;;;;;7.82;100.00;99883.53;5095348;28;20031;-80
2021/05/21 01:01:36;;;;;;;11.38;6.65;;;;;;;7.75;100.00;99880.19;5094155;28;20533;-79
2021/05/21 01:04:02;;;;;;;12.00;6.95;;;;;;;7.70;100.00;99873.44;5095290;28;20480;-80
2021/05/21 01:06:27;;;;;;;12.35;7.13;;;;;;;7.64;100.00;99870.97;5094057;28;20019;-79
2021/05/21 01:08:55;;;;;;;12.25;6.78;;;;;;;7.60;100.00;99870.13;5093965;28;20114;-80
2021/05/21 01:11:20;;;;;;;11.50;6.93;;;;;;;7.57;100.00;99859.84;5094991;28;20034;-79
2021/05/21 01:13:46;;;;;;;11.38;6.97;;;;;;;7.55;100.00;99857.31;5093954;28;20020;-80
2021/05/21 01:16:11;;;;;;;11.50;6.63;;;;;;;7.51;100.00;99847.94;5094177;28;20070;-79
2021/05/21 01:18:37;;;;;;;12.80;6.30;;;;;;;7.47;100.00;99848.84;5094261;28;20026;-79
2021/05/21 01:21:03;;;;;;;11.43;7.13;;;;;;;7.38;100.00;99839.53;5094046;28;20067;-80
2021/05/21 01:23:28;;;;;;;15.65;6.95;;;;;;;7.34;100.00;99831.88;5093856;28;20022;-80
2021/05/21 01:25:54;;;;;;;11.57;6.32;;;;;;;7.27;100.00;99835.44;5093797;28;20020;-79
2021/05/21 01:28:20;;;;;;;15.00;6.47;;;;;;;7.21;100.00;99825.22;5094277;28;20020;-79
2021/05/21 01:30:46;;;;;;;11.30;6.97;;;;;;;7.20;100.00;99820.94;5093798;28;20046;-80
2021/05/21 01:33:12;;;;;;;12.73;6.90;;;;;;;7.22;100.00;99816.63;5093594;28;20111;-79
2021/05/21 01:35:38;;;;;;;11.68;6.85;;;;;;;7.20;100.00;99810.63;5093647;28;20149;-79
2021/05/21 01:38:04;;;;;;;13.18;6.82;;;;;;;7.16;100.00;99804.66;5093453;28;20024;-80
2021/05/21 01:40:31;;;;;;;12.23;6.53;;;;;;;7.12;100.00;99803.88;5096165;28;20020;-79
2021/05/21 01:42:57;;;;;;;11.63;6.22;;;;;;;7.13;100.00;99797.81;5100345;28;20031;-78
2021/05/21 01:45:23;;;;;;;12.32;7.00;;;;;;;7.12;100.00;99790.13;5095031;28;20048;-79
2021/05/21 01:47:49;;;;;;;12.48;6.72;;;;;;;7.08;100.00;99786.75;5093049;28;20020;-80
2021/05/21 01:50:15;;;;;;;13.95;7.38;;;;;;;7.05;100.00;99773.91;5094127;28;20100;-79
2021/05/21 01:52:40;;;;;;;11.40;6.65;;;;;;;7.02;100.00;99771.38;5093056;28;20020;-80
2021/05/21 01:55:06;;;;;;;12.10;6.65;;;;;;;7.01;100.00;99771.41;5092879;28;20023;-79
2021/05/21 01:57:36;;;;;;;12.38;6.35;;;;;;;6.98;100.00;99766.28;5092222;28;20081;-79
2021/05/21 02:00:05;;;;;;;11.27;6.82;;;;;;;6.99;100.00;99760.25;5094149;28;20020;-80
2021/05/21 02:02:30;;;;;;;11.85;6.53;;;;;;;6.99;100.00;99757.66;5093103;28;20115;-79
2021/05/21 02:04:56;;;;;;;14.60;7.07;;;;;;;6.97;100.00;99755.13;5094108;28;20048;-80
2021/05/21 02:07:21;;;;;;;11.43;6.90;;;;;;;6.99;100.00;99745.66;5094340;28;20101;-79
2021/05/21 02:10:02;;;;;;;12.60;6.60;;;;;;;6.97;100.00;99742.25;5093407;28;20387;-79
2021/05/21 02:12:30;;;;;;;11.73;6.95;;;;;;;6.95;100.00;99730.25;5094506;28;20040;-79
2021/05/21 02:14:58;;;;;;;12.43;6.43;;;;;;;6.90;100.00;99732.91;5093085;28;20115;-80
2021/05/21 02:17:24;;;;;;;10.25;6.47;;;;;;;6.89;100.00;99720.88;5093108;28;20480;-80
2021/05/21 02:19:49;;;;;;;13.35;6.93;;;;;;;6.90;100.00;99722.59;5094221;28;20024;-79
2021/05/21 02:22:19;;;;;;;12.07;7.35;;;;;;;6.91;100.00;99719.16;5093074;28;20051;-79
2021/05/21 02:24:44;;;;;;;12.55;7.43;;;;;;;6.88;100.00;99714.03;5092968;28;20051;-79
2021/05/21 02:27:10;;;;;;;11.35;5.93;;;;;;;6.91;100.00;99698.53;5094330;28;20028;-79
2021/05/21 02:29:36;;;;;;;13.65;6.50;;;;;;;6.87;100.00;99697.72;5092915;28;20016;-79
2021/05/21 02:32:01;;;;;;;11.32;6.65;;;;;;;6.89;100.00;99689.94;5093108;28;20028;-78
2021/05/21 02:34:27;;;;;;;10.38;6.20;;;;;;;6.87;100.00;99694.31;5092622;28;20024;-79
2021/05/21 02:36:52;;;;;;;10.75;6.18;;;;;;;6.87;100.00;99687.41;5093104;28;20385;-79
2021/05/21 02:39:18;;;;;;;12.02;6.65;;;;;;;6.86;100.00;99677.97;5094147;28;20031;-79
2021/05/21 02:41:43;;;;;;;10.50;6.60;;;;;;;6.85;100.00;99676.28;5093917;28;20515;-79
2021/05/21 02:44:08;;;;;;;12.20;6.50;;;;;;;6.85;100.00;99665.97;5092636;28;20032;-80
2021/05/21 02:46:33;;;;;;;12.63;6.93;;;;;;;6.81;100.00;99660.91;5092880;28;20028;-80
2021/05/21 02:48:59;;;;;;;11.88;6.80;;;;;;;6.77;100.00;99659.22;5092538;28;20515;-79
2021/05/21 02:51:25;;;;;;;13.20;6.93;;;;;;;6.74;100.00;99654.97;5092452;28;20426;-79
2021/05/21 02:53:50;;;;;;;10.07;6.22;;;;;;;6.71;100.00;99649.88;5093678;28;20102;-79
2021/05/21 02:56:15;;;;;;;10.95;6.15;;;;;;;6.71;100.00;99651.59;5093755;28;20384;-79
2021/05/21 02:58:40;;;;;;;10.88;6.13;;;;;;;6.71;100.00;99649.03;5093921;28;20032;-78
2021/05/21 03:01:06;;;;;;;11.02;6.43;;;;;;;6.76;100.00;99647.25;5092283;28;20061;-79
2021/05/21 03:03:31;;;;;;;11.82;6.63;;;;;;;6.82;100.00;99644.56;5092383;28;20024;-80
2021/05/21 03:05:56;;;;;;;10.93;6.55;;;;;;;6.91;100.00;99640.09;5093532;28;20066;-79
2021/05/21 03:08:23;;;;;;;9.57;6.50;;;;;;;7.01;100.00;99638.19;5092807;28;20500;-79
2021/05/21 03:10:48;;;;;;;12.00;6.35;;;;;;;7.06;100.00;99632.94;5129016;22;20039;-80
2021/05/21 03:13:13;;;;;;;13.40;6.05;;;;;;;7.15;100.00;99625.88;5142668;27;20030;-80
2021/05/21 03:15:42;;;;;;;9.88;6.05;;;;;;;7.22;100.00;99620.59;5142702;27;20031;-80
2021/05/21 03:18:11;;;;;;;11.60;6.47;;;;;;;7.23;100.00;99615.41;5143148;27;20493;-80
2021/05/21 03:20:37;;;;;;;10.23;6.07;;;;;;;7.27;100.00;99613.66;5143792;27;20462;-80
2021/05/21 03:23:02;;;;;;;11.57;6.00;;;;;;;7.31;100.00;99613.53;5159701;27;20023;-80
2021/05/21 03:25:27;;;;;;;11.40;5.85;;;;;;;7.34;100.00;99603.16;5160192;27;20034;-80
2021/05/21 03:27:52;;;;;;;10.15;6.18;;;;;;;7.38;100.00;99593.63;5160319;27;20474;-80
2021/05/21 03:30:19;;;;;;;11.68;6.18;;;;;;;7.39;100.00;99592.75;5144310;27;20021;-80
2021/05/21 03:32:44;;;;;;;9.73;6.03;;;;;;;7.36;100.00;99587.66;5142911;27;20026;-80
2021/05/21 03:35:11;;;;;;;14.57;6.55;;;;;;;7.35;100.00;99585.94;5143758;27;20035;-80
2021/05/21 03:37:36;;;;;;;11.98;6.28;;;;;;;7.30;100.00;99582.63;5143937;27;20034;-80
2021/05/21 03:40:03;;;;;;;8.98;5.45;;;;;;;7.31;100.00;99574.84;5144244;27;20034;-80
2021/05/21 03:42:28;;;;;;;10.73;6.10;;;;;;;7.34;100.00;99576.50;5144137;27;20453;-80
2021/05/21 03:44:54;;;;;;;10.13;5.85;;;;;;;7.36;100.00;99557.56;5143611;27;20098;-80
2021/05/21 03:47:20;;;;;;;10.60;6.15;;;;;;;7.45;100.00;99561.66;5142357;27;20491;-80
2021/05/21 03:49:45;;;;;;;8.15;5.15;;;;;;;7.45;100.00;99555.63;5143055;27;20030;-80
2021/05/21 03:52:10;;;;;;;11.40;6.05;;;;;;;7.43;100.00;99563.44;5158243;27;20019;-80
2021/05/21 03:54:35;;;;;;;9.50;5.50;;;;;;;7.47;100.00;99554.72;5143969;27;20023;-80
2021/05/21 03:57:04;;;;;;;9.45;5.50;;;;;;;7.44;100.00;99552.22;5159184;27;20023;-80
2021/05/21 03:59:29;;;;;;;9.88;5.50;;;;;;;7.47;100.00;99551.31;5141576;27;20023;-80
2021/05/21 04:01:54;;;;;;;8.95;5.50;;;;;;;7.47;100.00;99548.72;5159473;27;20023;-80
2021/05/21 04:04:19;;;;;;;10.65;5.60;;;;;;;7.54;100.00;99540.84;5142882;27;20015;-80
2021/05/21 04:06:45;;;;;;;11.35;5.20;;;;;;;7.59;100.00;99544.13;5160116;27;20447;-80
2021/05/21 04:09:10;;;;;;;11.18;5.20;;;;;;;7.61;100.00;99539.81;5144141;27;20019;-80
2021/05/21 04:11:37;;;;;;;7.80;4.88;;;;;;;7.64;100.00;99532.88;5160067;27;20050;-80
2021/05/21 04:14:06;;;;;;;9.68;5.38;;;;;;;7.63;100.00;99523.44;5142615;27;20079;-80
2021/05/21 04:16:32;;;;;;;8.05;4.47;;;;;;;7.63;100.00;99526.84;5142529;27;20019;-80
2021/05/21 04:18:58;;;;;;;8.73;4.80;;;;;;;7.63;100.00;99520.84;5143952;27;20029;-80
2021/05/21 04:21:23;;;;;;;11.20;5.18;;;;;;;7.59;100.00;99517.50;5141871;27;20114;-80
2021/05/21 04:23:49;;;;;;;11.60;4.68;;;;;;;7.59;100.00;99515.75;5143696;27;20385;-80
2021/05/21 04:30:13;;;;;;;10.90;4.32;;;;;;;7.60;100.00;99503.69;5143316;27;20037;-80
2021/05/21 04:32:36;;;;;;;10.23;4.47;;;;;;;7.71;100.00;99501.72;5142372;27;20057;-80
2021/05/21 04:35:05;;;;;;;8.88;4.38;;;;;;;7.76;100.00;99501.63;5160103;27;20451;-80
2021/05/21 04:37:33;;;;;;;7.72;4.35;;;;;;;7.80;100.00;99498.09;5142292;27;20038;-80
2021/05/21 04:40:04;;;;;;;6.85;3.50;;;;;;;7.89;100.00;99497.84;5141774;27;20019;-80
2021/05/21 04:42:30;;;;;;;7.35;3.70;;;;;;;7.95;100.00;99495.13;5142645;27;20019;-80
2021/05/21 04:45:04;;;;;;;9.77;4.05;;;;;;;8.06;100.00;99493.09;5142493;27;20431;-80
2021/05/21 04:47:39;;;;;;;6.50;3.83;;;;;;;8.23;100.00;99481.50;5141073;27;20482;-80
2021/05/21 04:50:08;;;;;;;7.45;3.55;;;;;;;8.37;100.00;99487.16;5142016;27;20031;-80
2021/05/21 04:52:56;;;;;;;7.15;3.63;;;;;;;8.43;100.00;99486.19;5141385;27;20387;-80
2021/05/21 04:55:28;;;;;;;7.43;3.47;;;;;;;8.38;100.00;99477.69;5129744;27;20031;-80
2021/05/21 04:57:56;;;;;;;7.22;3.58;;;;;;;8.30;100.00;99470.13;5142570;27;20502;-80
2021/05/21 05:00:42;;;;;;;7.22;3.50;;;;;;;8.32;100.00;99468.38;5142312;27;20019;-79
2021/05/21 05:03:24;;;;;;;6.65;3.60;;;;;;;8.86;100.00;99475.50;5142626;27;20035;-80
2021/05/21 05:05:57;;;;;;;8.48;3.00;;;;;;;9.95;94.03;99460.94;5142577;27;20015;-80
2021/05/21 05:08:25;;;;;;;7.32;3.10;;;;;;;10.29;89.77;99460.69;5142698;27;20054;-81
2021/05/21 05:11:08;;;;;;;7.75;3.33;;;;;;;10.66;89.33;99457.63;5142755;27;20058;-80
2021/05/21 05:13:57;;;;;;;7.93;2.97;;;;;;;11.17;85.35;99443.59;5143279;27;20102;-80
2021/05/21 05:16:27;;;;;;;7.03;2.53;;;;;;;11.60;82.44;99441.91;5142357;27;20019;-80
2021/05/21 05:22:32;;;;;;;4.68;2.03;;;;;;;11.97;81.17;99432.63;5116795;27;20053;-81
2021/05/21 05:24:58;;;;;;;5.07;2.30;;;;;;;12.32;77.96;99431.13;5143015;27;20471;-81
2021/05/21 05:27:49;;;;;;;5.53;2.13;;;;;;;12.69;77.85;99434.72;5142483;27;20033;-81
2021/05/21 05:30:47;;;;;;;5.03;2.40;;;;;;;12.19;79.21;99424.75;5143225;27;20038;-80
2021/05/21 05:33:18;;;;;;;9.18;2.25;;;;;;;12.00;77.95;99418.66;5125962;27;20031;-80
2021/05/21 05:36:05;;;;;;;5.65;2.03;;;;;;;11.49;80.22;99418.13;5144348;27;20019;-80
2021/05/21 05:38:31;;;;;;;4.95;2.05;;;;;;;11.01;84.07;99419.16;5144722;27;20078;-81
2021/05/21 05:41:37;;;;;;;7.30;2.17;;;;;;;10.71;86.72;99418.53;5142719;27;20118;-81
2021/05/21 05:44:08;;;;;;;4.47;1.67;;;;;;;10.69;87.91;99410.00;5141319;27;20486;-81
2021/05/21 05:46:42;;;;;;;7.95;1.98;;;;;;;10.66;86.90;99410.94;5142691;27;20023;-80
2021/05/21 05:49:13;;;;;;;4.93;1.50;;;;;;;10.81;87.80;99405.19;5144100;27;20027;-80
2021/05/21 05:55:50;;;;;;;8.52;1.70;;;;;;;10.91;84.40;99397.06;5143784;27;20030;-80
2021/05/21 05:58:24;;;;;;;8.23;1.70;;;;;;;10.88;86.02;99394.59;5079724;27;20036;-80
2021/05/21 06:00:49;;;;;;;5.75;1.55;;;;;;;10.89;85.19;99391.06;5157593;27;20035;-80
2021/05/21 06:03:17;;;;;;;4.72;1.50;;;;;;;10.97;84.74;99396.81;5140014;27;20112;-80
2021/05/21 06:05:45;;;;;;;5.30;1.40;;;;;;;11.00;85.03;99396.72;5157014;27;20019;-80
2021/05/21 06:08:10;;;;;;;4.80;1.40;;;;;;;10.95;85.47;99383.06;5140909;27;20534;-80
2021/05/21 06:13:57;;;;;;;4.22;1.30;;;;;;;11.03;83.80;99381.03;5140656;28;20034;-80
2021/05/21 06:16:23;;;;;;;3.22;1.08;;;;;;;11.12;82.57;99380.66;5156728;27;20114;-81
2021/05/21 06:18:48;;;;;;;6.57;1.00;;;;;;;11.18;83.11;99379.56;5139718;28;20034;-80
2021/05/21 06:21:14;;;;;;;2.88;1.00;;;;;;;11.19;81.03;99363.94;5139615;28;20080;-80
2021/05/21 06:23:40;;;;;;;5.18;1.00;;;;;;;11.31;81.76;99367.78;5139890;27;20215;-80
2021/05/21 06:28:43;;;;;;;5.13;1.05;;;;;;;13.19;76.65;99357.78;5139112;27;20140;-80
2021/05/21 06:31:09;;;;;;;5.97;1.20;;;;;;;13.57;70.10;99350.72;5139379;27;20044;-81
2021/05/21 06:33:35;;;;;;;5.10;1.05;;;;;;;14.92;65.94;99359.31;5140444;28;20044;-81
2021/05/21 06:36:00;;;;;;;5.18;1.23;;;;;;;15.78;63.53;99354.44;5139631;28;20023;-81
2021/05/21 06:38:26;;;;;;;2.92;0.90;;;;;;;15.78;65.17;99349.22;5141251;28;20039;-82
2021/05/21 06:40:51;;;;;;;3.33;0.93;;;;;;;15.85;64.31;99350.50;5141016;28;20033;-80
2021/05/21 06:43:19;;;;;;;2.38;0.90;;;;;;;15.20;63.52;99350.75;5139847;27;20019;-81
2021/05/21 06:45:44;;;;;;;8.13;1.48;;;;;;;14.93;64.70;99351.41;5143973;27;20383;-80
2021/05/21 06:48:10;;;;;;;3.72;0.98;;;;;;;14.52;66.88;99348.44;5145533;27;20083;-81
2021/05/21 06:50:35;;;;;;;6.93;1.00;;;;;;;15.07;64.10;99349.78;5162432;27;20023;-81
2021/05/21 06:53:00;;;;;;;3.08;0.90;;;;;;;14.85;65.83;99356.19;5146350;27;20023;-80
2021/05/21 06:55:26;;;;;;;2.60;0.90;;;;;;;14.77;65.19;99360.16;5148062;27;20026;-81
2021/05/21 06:57:52;;;;;;;5.10;1.15;;;;;;;14.42;66.40;99352.44;5146678;27;20026;-81
2021/05/21 07:00:18;;;;;;;5.35;0.90;;;;;;;14.34;67.42;99352.00;5147629;27;20130;-81
2021/05/21 07:02:43;;;;;;;7.22;1.35;;;;;;;13.98;69.33;99359.06;5145141;27;20027;-81
2021/05/21 07:05:09;;;;;;;3.72;1.00;;;;;;;13.67;68.59;99351.97;5149412;27;20023;-82
2021/05/21 07:07:35;;;;;;;3.50;0.95;;;;;;;13.70;68.71;99348.34;5151198;27;20030;-82
2021/05/21 07:10:00;;;;;;;4.70;1.10;;;;;;;13.70;69.00;99343.13;5149102;27;20027;-81
2021/05/21 07:12:27;;;;;;;5.10;1.13;;;;;;;13.54;70.79;99343.91;5145428;27;20121;-80
2021/05/21 07:14:52;;;;;;;5.10;1.10;;;;;;;13.46;71.40;99343.44;5145126;27;20387;-80
2021/05/21 07:20:45;;;;;;;6.68;1.67;;;;;;;14.54;66.98;99330.94;5144955;27;20042;-80
2021/05/21 07:23:10;;;;;;;4.07;0.90;;;;;;;15.19;64.78;99321.19;5145044;27;20414;-80
2021/05/21 07:25:36;;;;;;;4.28;0.80;;;;;;;14.88;64.55;99323.88;5144975;27;20016;-81
2021/05/21 07:35:32;;;;;;;6.07;0.93;;;;;;;16.00;62.09;99309.53;5148216;27;20046;-81
2021/05/21 07:37:58;;;;;;;4.40;1.02;;;;;;;16.43;61.63;99312.97;5146468;27;20030;-80
2021/05/21 07:40:24;;;;;;;7.10;1.23;;;;;;;15.45;62.18;99310.16;5147784;27;20019;-80
2021/05/21 07:42:49;;;;;;;4.68;1.00;;;;;;;15.01;63.79;99308.34;5145480;27;20098;-81
2021/05/21 07:45:15;;;;;;;8.90;1.20;;;;;;;14.13;67.22;99302.69;5143739;27;20026;-80
2021/05/21 07:47:40;;;;;;;2.80;1.00;;;;;;;14.23;67.37;99303.03;5145226;27;20135;-80
2021/05/21 07:50:06;;;;;;;6.93;1.15;;;;;;;14.08;67.28;99296.84;5142689;27;20015;-80
2021/05/21 07:52:31;;;;;;;4.35;1.40;;;;;;;14.18;66.26;99305.84;5143356;27;20065;-81
2021/05/21 07:54:57;;;;;;;5.07;1.05;;;;;;;14.09;67.34;99293.31;5141860;27;20027;-81
2021/05/21 07:57:24;;;;;;;4.82;1.27;;;;;;;13.93;68.83;99302.88;5141159;27;20023;-80
2021/05/21 07:59:49;;;;;;;9.30;1.20;;;;;;;13.15;77.65;99315.44;5141626;27;20080;-80
2021/05/21 08:02:14;;;;;;;7.03;1.40;;;;;;;12.34;87.07;99325.28;5159348;27;20050;-81
2021/05/21 08:04:39;;;;;;;6.20;1.35;;;;;;;11.86;89.24;99334.34;5159765;27;20023;-80
2021/05/21 08:07:05;;;;;;;6.07;1.15;;;;;;;11.62;94.24;99354.38;5141655;27;20031;-80
2021/05/21 08:09:30;;;;;;;4.93;1.50;;;;;;;10.93;96.61;99357.19;5142619;27;20035;-79
2021/05/21 08:11:56;;;;;;;6.22;1.13;;;;;;;10.51;100.00;99357.06;5157693;27;20055;-79
2021/05/21 08:14:21;;;;;;;4.68;1.00;;;;;;;10.52;100.00;99363.94;5141635;27;20029;-79
2021/05/21 08:16:46;;;;;;;6.75;1.10;;;;;;;10.74;99.46;99369.16;5143415;27;20023;-79
2021/05/21 08:19:12;;;;;;;3.15;0.80;;;;;;;12.27;89.93;99360.28;5138748;27;20023;-79
2021/05/21 08:21:37;;;;;;;3.55;0.80;;;;;;;11.53;89.03;99352.19;5140623;27;20034;-79
2021/05/21 08:24:03;;;;;;;5.38;0.90;;;;;;;11.51;95.32;99362.63;5139658;27;20608;-80
2021/05/21 08:26:29;;;;;;;4.60;0.80;;;;;;;11.28;96.07;99367.91;5140006;27;20023;-79
2021/05/21 08:28:56;;;;;;;4.32;0.90;;;;;;;11.02;94.25;99355.97;5138530;27;20040;-79
2021/05/21 08:31:22;;;;;;;6.45;1.10;;;;;;;10.98;94.91;99357.84;5137689;27;20027;-79
2021/05/21 08:33:48;;;;;;;15.48;1.42;;;;;;;11.61;93.29;99350.13;5136700;27;20375;-80
2021/05/21 08:36:14;;;;;;;7.32;1.33;;;;;;;12.24;90.63;99349.19;5136966;27;20020;-80
2021/05/21 08:38:46;;;;;;;7.05;1.33;;;;;;;11.91;89.09;99347.13;5138148;27;20038;-79
2021/05/21 08:41:22;;;;;;;7.22;1.40;;;;;;;11.78;89.20;99346.78;5138842;27;20394;-80
2021/05/21 08:43:49;;;;;;;5.35;1.17;;;;;;;11.69;90.05;99348.03;5140425;27;20084;-79
2021/05/21 08:46:16;;;;;;;7.28;1.33;;;;;;;11.50;88.24;99339.31;5141282;27;20071;-80
2021/05/21 08:48:42;;;;;;;8.07;1.27;;;;;;;11.36;87.66;99342.50;5142363;27;20023;-80
2021/05/21 08:51:09;;;;;;;6.53;1.40;;;;;;;11.27;86.97;99341.13;5157515;27;20015;-80
2021/05/21 08:53:36;;;;;;;9.02;1.60;;;;;;;11.36;88.43;99336.44;5141827;27;20047;-80
2021/05/21 08:56:02;;;;;;;6.70;1.50;;;;;;;11.36;89.57;99333.84;5140302;27;20554;-79
2021/05/21 08:58:27;;;;;;;8.13;1.40;;;;;;;11.37;87.42;99330.34;5139889;27;20046;-79
2021/05/21 09:00:53;;;;;;;8.80;1.50;;;;;;;11.53;83.78;99344.38;5156160;27;20044;-79
2021/05/21 09:03:20;;;;;;;9.93;1.60;;;;;;;11.97;78.25;99339.91;5154910;27;20055;-79
2021/05/21 09:06:15;;;;;;;7.95;1.55;;;;;;;12.60;77.97;99331.06;5136679;27;20027;-79
2021/05/21 09:08:43;;;;;;;;;;;;;;;13.11;74.08;99332.94;5135775;27;20027;-78
2021/05/21 09:11:22;;;;;;;11.40;2.00;;;;;;;13.98;72.83;99325.16;5135579;27;19911;-79
2021/05/21 09:13:50;;;;;;;10.68;1.58;;;;;;;13.96;69.31;99315.75;5139443;28;20076;-80
2021/05/21 09:16:27;;;;;;;13.45;2.03;;;;;;;14.91;66.14;99315.84;5138061;28;20117;-80
2021/05/21 09:19:14;;;;;;;9.23;2.00;;;;;;;15.49;60.93;99322.16;5138973;27;20023;-79
2021/05/21 09:22:00;;;;;;;10.63;1.85;;;;;;;15.80;63.20;99315.97;5137079;28;20502;-80
2021/05/21 09:24:33;;;;;;;12.55;1.95;;;;;;;15.41;61.73;99322.56;5139785;28;20517;-80
2021/05/21 09:26:58;;;;;;;10.30;1.77;;;;;;;15.75;62.08;99318.00;5137114;28;20053;-80
2021/05/21 09:29:39;;;;;;;11.77;2.22;;;;;;;15.23;65.43;99321.03;5136522;28;20487;-80
2021/05/21 09:32:28;;;;;;;9.65;1.90;;;;;;;16.54;59.13;99314.94;5138023;28;20109;-80
2021/05/21 09:35:12;;;;;;;12.35;2.10;;;;;;;15.95;62.47;99309.84;5137968;28;20072;-80
2021/05/21 09:37:54;;;;;;;10.70;1.95;;;;;;;15.10;64.14;99302.59;5136099;28;20023;-80
2021/05/21 09:40:22;;;;;;;10.57;1.98;;;;;;;16.66;59.26;99290.59;5137211;28;20412;-80
2021/05/21 09:42:58;;;;;;;8.75;1.67;;;;;;;17.31;53.82;99292.50;5139211;28;20032;-80
2021/05/21 09:45:37;;;;;;;10.77;2.10;;;;;;;17.17;54.82;99287.34;5139253;28;20060;-80
2021/05/21 09:48:07;;;;;;;11.25;2.00;;;;;;;17.72;52.82;99281.84;5136029;28;20019;-80
2021/05/21 09:50:37;;;;;;;7.28;1.77;;;;;;;17.39;51.77;99279.72;5137993;27;20035;-80
2021/05/21 09:53:13;;;;;;;10.30;1.80;;;;;;;18.01;48.61;99276.44;5139232;27;20030;-80
2021/05/21 09:55:41;;;;;;;11.93;1.98;;;;;;;18.16;48.38;99269.25;5139007;28;20079;-81
2021/05/21 09:58:08;;;;;;;9.45;1.80;;;;;;;18.33;46.43;99266.28;5141349;27;20019;-80
2021/05/21 10:00:34;;;;;;;9.73;1.95;;;;;;;17.85;48.75;99254.81;5139384;28;20027;-80
2021/05/21 10:06:22;;;;;;;8.80;2.05;;;;;;;17.03;45.09;99239.31;5142592;28;20050;-81
2021/05/21 10:08:48;;;;;;;10.90;1.58;;;;;;;18.69;44.15;99255.88;5141419;28;20134;-80
2021/05/21 10:11:15;;;;;;;13.65;1.83;;;;;;;18.89;43.34;99247.41;5124869;27;525988;-81
2021/05/21 10:13:44;;;;;;;11.73;1.98;;;;;;;19.21;43.43;99241.53;5142795;27;20047;-81
2021/05/21 10:19:33;;;;;;;12.45;2.55;;;;;;;18.39;46.79;99249.25;5145794;27;20399;-80
2021/05/21 10:22:08;;;;;;;6.47;1.52;;;;;;;18.88;45.77;99245.75;5161594;27;20028;-80
2021/05/21 10:24:36;;;;;;;8.45;1.90;;;;;;;20.22;46.14;99252.19;5145607;27;20483;-82
2021/05/21 10:27:08;;;;;;;10.80;1.83;;;;;;;18.55;46.73;99260.34;5145786;27;20020;-81
2021/05/21 10:29:41;;;;;;;8.95;2.70;;;;;;;17.53;49.79;99254.38;5144218;27;20076;-80
2021/05/21 10:32:19;;;;;;;10.68;2.28;;;;;;;16.47;52.51;99250.78;5144668;27;20027;-81
2021/05/21 10:34:54;;;;;;;9.35;1.88;;;;;;;15.90;54.47;99259.56;5144834;27;20023;-81
2021/05/21 10:37:26;;;;;;;9.05;1.90;;;;;;;15.55;55.21;99259.06;5163251;27;20029;-81
2021/05/21 10:40:04;;;;;;;9.23;1.90;;;;;;;15.50;55.04;99255.88;5146183;27;20079;-81
2021/05/21 10:42:43;;;;;;;7.25;1.90;;;;;;;15.27;56.15;99250.25;5146389;27;20027;-81
2021/05/21 10:45:13;;;;;;;9.00;1.90;;;;;;;15.23;54.70;99261.78;5146535;27;20027;-81
2021/05/21 10:47:45;;;;;;;8.20;1.73;;;;;;;15.10;54.59;99258.22;5145373;27;20027;-81
2021/05/21 10:50:20;;;;;;;8.38;1.70;;;;;;;15.18;54.90;99253.38;5146296;27;20027;-81
2021/05/21 10:52:53;;;;;;;9.70;1.63;;;;;;;15.16;54.87;99256.06;5145630;27;20023;-81
2021/05/21 10:55:47;;;;;;;11.10;2.13;;;;;;;15.03;54.27;99252.50;5146871;27;20031;-81
2021/05/21 10:58:27;;;;;;;10.75;1.90;;;;;;;14.80;56.46;99263.41;5143956;27;20019;-81
2021/05/21 11:01:17;;;;;;;11.05;1.95;;;;;;;14.84;55.04;99263.16;5149149;27;20027;-81
2021/05/21 11:04:19;;;;;;;11.60;2.08;;;;;;;14.74;55.76;99256.75;5148950;27;20048;-81
2021/05/21 11:06:50;;;;;;;11.10;1.88;;;;;;;14.48;56.73;99261.63;5146997;27;20035;-82
2021/05/21 11:09:38;;;;;;;8.98;1.95;;;;;;;15.76;53.29;99262.16;5145636;27;20023;-82
2021/05/21 11:12:05;;;;;;;7.93;1.83;;;;;;;17.29;49.76;99251.63;5141605;27;20080;-80
2021/05/21 11:14:31;;;;;;;9.77;1.80;;;;;;;15.76;54.10;99256.94;5140284;27;20019;-80
2021/05/21 11:17:12;;;;;;;8.75;2.00;;;;;;;15.09;55.09;99248.69;5141614;27;20062;-80
2021/05/21 11:19:45;;;;;;;9.80;2.40;;;;;;;15.32;55.51;99258.63;5141095;27;20023;-80
2021/05/21 11:22:23;;;;;;;6.18;1.60;;;;;;;14.82;56.65;99254.56;5141645;27;20031;-80
2021/05/21 11:25:02;;;;;;;10.02;2.03;;;;;;;14.36;55.35;99257.09;5140828;27;20019;-80
2021/05/21 11:27:30;;;;;;;8.07;1.35;;;;;;;14.54;55.40;99255.28;5141982;27;20023;-81
2021/05/21 11:29:56;;;;;;;8.35;1.67;;;;;;;14.89;57.33;99255.88;5138511;27;20023;-80
2021/05/21 11:32:26;;;;;;;6.97;1.63;;;;;;;14.56;56.51;99252.56;5139389;27;20402;-80
2021/05/21 11:34:53;;;;;;;14.68;2.42;;;;;;;14.70;57.90;99256.09;5139848;27;20023;-81
2021/05/21 11:37:23;;;;;;;14.15;2.00;;;;;;;14.61;57.51;99272.25;5142808;27;20023;-81
2021/05/21 11:39:52;;;;;;;8.10;1.50;;;;;;;13.95;58.80;99278.41;5144234;27;20034;-81
2021/05/21 11:42:18;;;;;;;11.02;1.70;;;;;;;13.42;59.32;99274.19;5141873;27;20046;-82
2021/05/21 11:44:55;;;;;;;11.55;1.98;;;;;;;13.41;61.55;99280.31;5143391;27;20027;-82
2021/05/21 11:47:26;;;;;;;9.50;1.55;;;;;;;13.11;61.91;99285.25;5146338;27;20026;-82
2021/05/21 11:49:53;;;;;;;10.45;1.60;;;;;;;12.49;68.87;99283.91;5146237;27;20057;-82
2021/05/21 11:52:18;;;;;;;10.05;2.13;;;;;;;12.21;70.35;99278.22;5145023;27;20058;-81
2021/05/21 11:54:44;;;;;;;9.85;1.60;;;;;;;12.19;73.65;99281.78;5144599;27;20019;-81
2021/05/21 11:57:13;;;;;;;9.80;1.80;;;;;;;12.24;76.97;99277.22;5141314;27;20037;-81
2021/05/21 11:59:41;;;;;;;10.30;1.60;;;;;;;12.43;75.45;99274.63;5157316;27;20023;-81
2021/05/21 12:02:17;;;;;;;6.68;1.30;;;;;;;12.64;72.70;99271.00;5139244;27;20019;-81
2021/05/21 12:04:46;;;;;;;10.52;1.50;;;;;;;13.09;71.91;99268.88;5139594;27;20076;-81
2021/05/21 12:07:27;;;;;;;11.02;2.00;;;;;;;13.29;72.47;99263.53;5140718;27;20031;-81
2021/05/21 12:10:00;;;;;;;9.77;1.15;;;;;;;13.06;72.89;99262.06;5142311;27;20479;-81
2021/05/21 12:12:38;;;;;;;7.38;1.40;;;;;;;12.66;72.76;99245.78;5138641;27;20035;-81